Norfolk, Virginia
Traffic Map
Current Weather Conditions
Norfolk, Virginia
Overcast
Overcast

Feels Like: 1°
Wind Chill: Ceiling: 5000
Heat Index: Visibility: 10mi
Dew Point: -9° Wind: 9mph
Humidity: 38% Direction: 320° (NW)
Pressure: 30in Gusts: 0mph
Raw Report DataKORF 281751Z AUTO 32008KT 10SM OVC050 04/M09 A3000 RMK AO2 SLP159 T00441089 10050 20033 52008 TSNO
Traffic Incident Summary
Active as of:
Severity:
Category:
InformationThere was an issue retrieving the traffic information for this location. Please try a different location or try again shortly.
Advertisements
Track Severe Weather on mobile